Time;durP1;ratioP1;P1;durP2;ratioP2;P2;SDS_P1;SDS_P2;PMS_P1;PMS_P2;Temp;Humidity;BMP_temperature;BMP_pressure;BME280_temperature;BME280_humidity;BME280_pressure;Samples;Min_cycle;Max_cycle;Signal;HPM_P1;HPM_P2
2023/12/15 00:01:33;;;;;;;4.87;2.00;;;;;;;12.23;67.25;98639.41;5097963;28;20178;-87
2023/12/15 00:03:58;;;;;;;4.57;2.17;;;;;;;12.32;66.90;98651.91;5115747;28;20254;-90
2023/12/15 00:06:25;;;;;;;6.27;1.97;;;;;;;12.26;66.69;98650.53;5115702;28;20198;-89
2023/12/15 00:08:51;;;;;;;4.70;2.10;;;;;;;12.28;67.36;98656.53;5115698;28;20179;-89
2023/12/15 00:11:17;;;;;;;4.73;1.70;;;;;;;12.33;66.69;98658.84;5115608;28;20209;-88
2023/12/15 00:13:44;;;;;;;3.07;1.60;;;;;;;12.36;66.88;98665.69;5097592;28;20274;-89
2023/12/15 00:16:10;;;;;;;4.63;1.80;;;;;;;12.45;66.58;98657.19;5097464;28;20540;-90
2023/12/15 00:18:36;;;;;;;4.00;1.93;;;;;;;12.30;66.72;98674.81;5097233;28;20218;-88
2023/12/15 00:21:03;;;;;;;3.33;1.23;;;;;;;12.42;66.67;98673.16;5097634;28;20215;-89
2023/12/15 00:23:29;;;;;;;4.63;1.70;;;;;;;12.43;66.20;98686.19;5097434;28;20200;-89
2023/12/15 00:25:59;;;;;;;3.40;1.27;;;;;;;12.34;66.41;98685.00;5115599;28;20538;-88
2023/12/15 00:28:25;;;;;;;3.83;1.37;;;;;;;12.31;66.67;98690.50;5115515;28;20194;-88
2023/12/15 00:30:52;;;;;;;2.93;1.00;;;;;;;12.10;66.52;98693.69;5115406;28;20202;-91
2023/12/15 00:33:19;;;;;;;2.63;1.27;;;;;;;12.21;66.93;98704.34;5115311;28;20222;-88
2023/12/15 00:35:46;;;;;;;2.40;1.13;;;;;;;12.20;66.89;98702.66;5114980;28;20182;-89
2023/12/15 00:38:13;;;;;;;3.90;1.10;;;;;;;12.25;66.24;98711.06;5115222;28;20618;-88
2023/12/15 00:40:38;;;;;;;2.67;1.00;;;;;;;11.96;66.89;98714.75;5115138;28;20182;-88
2023/12/15 00:43:04;;;;;;;2.17;1.00;;;;;;;11.98;67.23;98718.13;5115055;28;20193;-89
2023/12/15 00:45:30;;;;;;;2.50;1.00;;;;;;;12.23;66.65;98723.47;5096955;28;20182;-88
2023/12/15 00:47:56;;;;;;;2.83;1.00;;;;;;;12.29;66.15;98730.94;5114819;28;20190;-89
2023/12/15 00:50:22;;;;;;;1.77;0.97;;;;;;;11.99;67.02;98732.94;5114968;28;20621;-88
2023/12/15 00:52:48;;;;;;;3.10;1.20;;;;;;;12.02;67.20;98740.63;5114628;28;20205;-88
2023/12/15 00:55:14;;;;;;;2.40;0.90;;;;;;;11.96;66.78;98736.63;5114988;28;20169;-87
2023/12/15 00:57:40;;;;;;;1.03;0.50;;;;;;;11.98;66.98;98731.25;5114924;28;20169;-88
2023/12/15 01:00:07;;;;;;;2.60;0.87;;;;;;;11.99;66.96;98740.81;5096503;28;20630;-89
2023/12/15 01:02:33;;;;;;;2.03;0.53;;;;;;;11.94;67.17;98737.66;5114971;28;20192;-88
2023/12/15 01:04:59;;;;;;;2.73;0.83;;;;;;;12.09;66.86;98739.28;5114622;28;20177;-88
2023/12/15 01:07:30;;;;;;;24.37;9.57;;;;;;;12.10;66.25;98746.25;5114725;28;20173;-88
2023/12/15 01:09:57;;;;;;;1.43;0.50;;;;;;;12.24;66.05;98748.78;5114349;28;20181;-89
2023/12/15 01:12:24;;;;;;;0.50;0.30;;;;;;;12.16;66.15;98758.94;5096865;28;20203;-88
2023/12/15 01:14:50;;;;;;;0.53;0.23;;;;;;;12.16;65.96;98756.31;5113176;28;20812;-90
2023/12/15 01:17:15;;;;;;;0.70;0.30;;;;;;;12.09;65.97;98757.69;5114234;28;20176;-90
2023/12/15 01:19:42;;;;;;;0.60;0.30;;;;;;;12.01;66.15;98766.06;5096247;28;20235;-90
2023/12/15 01:22:09;;;;;;;0.50;0.27;;;;;;;12.00;66.88;98771.41;5114347;28;20180;-90
2023/12/15 01:24:35;;;;;;;0.60;0.33;;;;;;;12.07;66.92;98765.66;5114111;28;20196;-87
2023/12/15 01:27:00;;;;;;;0.37;0.20;;;;;;;12.06;66.69;98766.59;5114570;28;20173;-89
2023/12/15 01:29:27;;;;;;;0.40;0.10;;;;;;;12.07;66.44;98770.06;5113655;28;20242;-89
2023/12/15 01:31:52;;;;;;;0.30;0.20;;;;;;;12.10;66.15;98767.25;5114052;28;20205;-90
2023/12/15 01:34:18;;;;;;;0.87;0.30;;;;;;;12.04;66.37;98770.25;5096024;28;20196;-90
2023/12/15 01:36:45;;;;;;;1.27;0.27;;;;;;;12.07;66.25;98777.94;5096241;28;20189;-89
2023/12/15 01:39:10;;;;;;;1.17;0.33;;;;;;;12.05;66.55;98777.22;5096124;28;20177;-88
2023/12/15 01:41:37;;;;;;;0.30;0.20;;;;;;;11.93;66.64;98777.97;5114444;28;20548;-89
2023/12/15 01:44:03;;;;;;;0.23;0.20;;;;;;;12.06;66.48;98777.09;5113980;28;20287;-89
2023/12/15 01:46:28;;;;;;;0.10;0.10;;;;;;;12.08;66.19;98784.91;5096079;28;20323;-89
2023/12/15 01:48:55;;;;;;;0.67;0.27;;;;;;;12.32;65.80;98793.81;5096549;28;20177;-90
2023/12/15 01:51:21;;;;;;;2.00;0.33;;;;;;;12.23;65.87;98779.50;5113741;28;20206;-89
2023/12/15 01:53:48;;;;;;;0.40;0.20;;;;;;;12.15;65.94;98786.19;5095960;28;20554;-89
2023/12/15 01:56:14;;;;;;;0.40;0.20;;;;;;;12.21;66.04;98783.16;5112596;28;20186;-91
2023/12/15 01:58:40;;;;;;;0.10;0.10;;;;;;;12.22;65.84;98790.09;5096011;28;20197;-89
2023/12/15 02:01:08;;;;;;;0.30;0.17;;;;;;;12.15;65.36;98794.91;5113116;28;20185;-90
2023/12/15 02:03:34;;;;;;;0.10;0.10;;;;;;;12.17;66.06;98798.28;5113749;28;20291;-88
2023/12/15 02:06:01;;;;;;;0.73;0.23;;;;;;;12.35;65.58;98791.00;5113876;28;20185;-90
2023/12/15 02:08:26;;;;;;;0.40;0.20;;;;;;;12.42;64.81;98794.88;5095700;28;20182;-90
2023/12/15 02:10:53;;;;;;;0.57;0.30;;;;;;;12.36;65.00;98804.97;5113591;28;20259;-88
2023/12/15 02:13:20;;;;;;;0.40;0.20;;;;;;;12.35;64.90;98806.75;5113539;28;20233;-91
2023/12/15 02:15:45;;;;;;;0.87;0.30;;;;;;;12.14;65.39;98808.13;5113711;28;20185;-89
2023/12/15 02:18:11;;;;;;;0.43;0.30;;;;;;;12.24;65.47;98814.47;5113495;28;20177;-90
2023/12/15 02:20:38;;;;;;;0.60;0.30;;;;;;;12.26;65.56;98817.88;5113871;28;20185;-90
2023/12/15 02:23:05;;;;;;;0.80;0.37;;;;;;;12.19;65.46;98820.03;5095479;28;20177;-90
2023/12/15 02:25:32;;;;;;;0.53;0.30;;;;;;;12.10;65.86;98828.53;5095760;28;20193;-88
2023/12/15 02:27:59;;;;;;;1.03;0.30;;;;;;;12.21;65.53;98833.91;5113534;28;20180;-89
2023/12/15 02:30:24;;;;;;;5.53;1.23;;;;;;;12.14;65.68;98837.03;5095438;28;20186;-89
2023/12/15 02:32:50;;;;;;;2.53;0.90;;;;;;;11.92;66.72;98837.56;5113136;28;20217;-89
2023/12/15 02:35:16;;;;;;;0.73;0.30;;;;;;;12.11;66.72;98853.00;5113228;28;20182;-89
2023/12/15 02:37:43;;;;;;;1.47;0.40;;;;;;;12.20;66.03;98850.63;5095665;28;20193;-88
2023/12/15 02:40:10;;;;;;;2.33;0.30;;;;;;;11.97;66.26;98863.53;5113325;28;20188;-89
2023/12/15 02:42:36;;;;;;;3.10;0.60;;;;;;;11.98;66.55;98855.53;5099623;28;20181;-90
2023/12/15 02:45:02;;;;;;;0.77;0.37;;;;;;;12.05;66.50;98872.63;5117235;28;20677;-90
2023/12/15 02:47:28;;;;;;;1.83;0.40;;;;;;;12.08;66.46;98861.91;5117376;28;20197;-90
2023/12/15 02:49:55;;;;;;;0.40;0.20;;;;;;;12.14;66.75;98868.56;5117254;28;20252;-89
2023/12/15 02:52:21;;;;;;;0.50;0.30;;;;;;;12.06;66.95;98868.19;5099109;28;20597;-89
2023/12/15 02:54:47;;;;;;;0.90;0.60;;;;;;;12.05;66.95;98882.28;5117143;28;20173;-90
2023/12/15 02:57:13;;;;;;;0.33;0.27;;;;;;;11.98;67.23;98867.84;5115911;28;20189;-90
2023/12/15 02:59:38;;;;;;;0.20;0.20;;;;;;;12.02;67.48;98882.47;5096787;28;20183;-90
2023/12/15 03:02:04;;;;;;;0.30;0.20;;;;;;;12.05;67.05;98882.28;5081039;28;20548;-90
2023/12/15 03:04:31;;;;;;;0.47;0.33;;;;;;;11.88;67.75;98893.84;5117225;28;20173;-90
2023/12/15 03:06:58;;;;;;;1.17;0.40;;;;;;;11.90;67.76;98893.72;5117378;28;20330;-89
2023/12/15 03:09:24;;;;;;;0.93;0.30;;;;;;;12.01;68.01;98900.03;5099021;28;20188;-89
2023/12/15 03:11:50;;;;;;;0.77;0.30;;;;;;;12.01;67.72;98905.28;5116708;28;20196;-89
2023/12/15 03:14:17;;;;;;;1.00;0.33;;;;;;;12.12;67.64;98908.09;5099101;28;20177;-89
2023/12/15 03:16:44;;;;;;;0.53;0.40;;;;;;;11.97;68.16;98901.16;5115772;28;20218;-90
2023/12/15 03:19:10;;;;;;;2.47;0.40;;;;;;;11.92;68.71;98911.09;5116416;28;20210;-89
2023/12/15 03:21:36;;;;;;;1.37;0.30;;;;;;;11.92;68.45;98924.25;5098737;28;20173;-89
2023/12/15 03:24:03;;;;;;;1.17;0.40;;;;;;;11.88;68.45;98932.38;5098828;28;20550;-87
2023/12/15 03:26:30;;;;;;;2.83;0.80;;;;;;;11.93;68.72;98939.03;5116918;28;20177;-89
2023/12/15 03:28:57;;;;;;;1.03;0.50;;;;;;;12.09;68.48;98933.69;5116462;28;20264;-89
2023/12/15 03:31:24;;;;;;;1.30;0.47;;;;;;;12.15;67.81;98930.69;5116536;28;20201;-88
2023/12/15 03:33:49;;;;;;;0.43;0.30;;;;;;;12.00;67.82;98937.72;5116357;28;20602;-90
2023/12/15 03:36:16;;;;;;;1.57;0.60;;;;;;;12.02;68.63;98945.53;5098438;28;20269;-90
2023/12/15 03:38:43;;;;;;;0.23;0.23;;;;;;;12.02;69.23;98950.78;5113183;28;20260;-89
2023/12/15 03:41:12;;;;;;;1.33;0.63;;;;;;;11.84;69.09;98947.50;5096013;28;20254;-89
2023/12/15 03:43:39;;;;;;;0.73;0.20;;;;;;;11.81;70.02;98962.59;5096054;28;20548;-89
2023/12/15 03:46:05;;;;;;;1.47;0.53;;;;;;;11.88;69.89;98959.50;5094589;28;20180;-90
2023/12/15 03:48:30;;;;;;;0.73;0.40;;;;;;;11.90;69.81;98964.63;5115971;28;20206;-90
2023/12/15 03:50:57;;;;;;;0.80;0.30;;;;;;;11.69;70.86;98975.50;5116322;28;20634;-90
2023/12/15 03:53:24;;;;;;;0.80;0.30;;;;;;;11.75;71.04;98973.44;5097639;28;20203;-89
2023/12/15 03:55:49;;;;;;;0.63;0.37;;;;;;;11.86;70.18;98965.78;5115199;28;20267;-89
2023/12/15 03:58:16;;;;;;;0.57;0.40;;;;;;;11.84;70.62;98962.41;5115866;28;20214;-90
2023/12/15 04:00:43;;;;;;;1.00;0.47;;;;;;;11.85;70.46;98970.19;5116079;28;20226;-91
2023/12/15 04:03:10;;;;;;;0.20;0.20;;;;;;;11.94;70.02;98976.66;5098029;28;20279;-90
2023/12/15 04:05:36;;;;;;;1.07;0.47;;;;;;;11.87;69.94;98985.84;5097865;28;20177;-90
2023/12/15 04:08:03;;;;;;;1.43;0.40;;;;;;;12.04;69.09;98990.94;5115771;28;20177;-90
2023/12/15 04:10:30;;;;;;;0.77;0.23;;;;;;;12.08;68.73;98989.81;5115746;28;20213;-90
2023/12/15 04:12:55;;;;;;;1.90;0.50;;;;;;;12.13;68.57;98995.63;5097595;28;20224;-91
2023/12/15 04:15:22;;;;;;;1.57;0.40;;;;;;;12.13;67.76;98985.13;5097622;28;20592;-91
2023/12/15 04:17:49;;;;;;;2.43;0.50;;;;;;;12.01;68.42;98985.84;5097340;28;20635;-90
2023/12/15 04:20:15;;;;;;;1.73;0.70;;;;;;;12.07;68.09;98985.50;5115513;28;20190;-90
2023/12/15 04:22:42;;;;;;;3.10;1.10;;;;;;;12.05;67.66;98990.00;5097490;28;20247;-91
2023/12/15 04:25:08;;;;;;;1.80;0.63;;;;;;;11.95;68.10;98994.13;5115548;28;20636;-90
2023/12/15 04:27:35;;;;;;;1.97;0.60;;;;;;;12.07;67.44;98996.84;5115553;28;20169;-90
2023/12/15 04:30:02;;;;;;;8.33;2.30;;;;;;;12.17;67.71;99002.38;5115581;28;20196;-91
2023/12/15 04:32:28;;;;;;;1.03;0.53;;;;;;;12.09;67.61;98994.13;5097251;28;20217;-89
2023/12/15 04:34:55;;;;;;;0.53;0.40;;;;;;;12.09;66.99;98996.75;5115427;28;20176;-89
2023/12/15 04:37:22;;;;;;;1.47;0.47;;;;;;;12.14;66.85;99003.41;5122689;27;20180;-91
2023/12/15 04:39:48;;;;;;;0.87;0.50;;;;;;;12.11;66.86;99000.13;5115404;28;20203;-89
2023/12/15 04:42:15;;;;;;;0.53;0.23;;;;;;;12.11;66.89;99008.00;5097233;28;20182;-91
2023/12/15 04:44:41;;;;;;;0.33;0.30;;;;;;;12.12;66.57;99009.69;5115055;28;20206;-91
2023/12/15 04:47:07;;;;;;;1.70;0.30;;;;;;;12.15;66.47;99022.66;5114208;28;20178;-89
2023/12/15 04:49:34;;;;;;;0.57;0.30;;;;;;;11.93;67.04;99019.63;5114851;28;20190;-90
2023/12/15 04:52:00;;;;;;;0.10;0.10;;;;;;;11.99;67.30;99019.25;5097043;28;20263;-90
2023/12/15 04:54:28;;;;;;;0.57;0.30;;;;;;;11.92;67.62;99017.94;5114799;28;20199;-91
2023/12/15 04:56:53;;;;;;;0.60;0.40;;;;;;;11.93;66.92;99020.47;5115012;28;20172;-89
2023/12/15 04:59:20;;;;;;;1.57;0.40;;;;;;;11.95;67.49;99023.84;5114882;28;20638;-90
2023/12/15 05:01:47;;;;;;;1.40;0.60;;;;;;;11.96;67.48;99032.56;5114712;28;20213;-90
2023/12/15 05:04:12;;;;;;;2.00;0.57;;;;;;;12.02;67.40;99042.72;5114022;28;20242;-90
2023/12/15 05:06:39;;;;;;;0.87;0.37;;;;;;;12.17;66.97;99044.41;5096970;28;20683;-90
2023/12/15 05:09:08;;;;;;;1.27;0.30;;;;;;;12.26;66.63;99034.19;5114786;28;20264;-90
2023/12/15 05:11:36;;;;;;;0.23;0.20;;;;;;;12.24;66.14;99050.97;5113848;28;20651;-90
2023/12/15 05:14:03;;;;;;;1.27;0.33;;;;;;;12.17;66.53;99049.66;5113674;28;20191;-90
2023/12/15 05:16:30;;;;;;;2.83;0.20;;;;;;;12.06;66.84;99046.84;5114108;28;20176;-89
2023/12/15 05:18:55;;;;;;;0.10;0.10;;;;;;;12.01;67.30;99062.03;5114365;28;20228;-90
2023/12/15 05:21:22;;;;;;;0.20;0.20;;;;;;;12.02;66.86;99066.38;5114732;28;20176;-91
2023/12/15 05:23:49;;;;;;;0.20;0.20;;;;;;;12.13;66.51;99074.47;5114569;28;20177;-91
2023/12/15 05:26:16;;;;;;;0.97;0.47;;;;;;;12.16;66.63;99090.84;5115024;28;20180;-90
2023/12/15 05:28:44;;;;;;;0.13;0.10;;;;;;;12.04;66.76;99090.75;5114202;28;20623;-90
2023/12/15 05:31:11;;;;;;;0.60;0.30;;;;;;;11.96;66.71;99085.94;5114761;28;20268;-91
2023/12/15 05:33:38;;;;;;;0.30;0.30;;;;;;;12.06;67.18;99099.38;5114046;28;20654;-91
2023/12/15 05:36:05;;;;;;;0.43;0.27;;;;;;;12.15;66.79;99099.69;5096340;28;20262;-90
2023/12/15 05:38:31;;;;;;;0.30;0.30;;;;;;;12.01;66.95;99106.69;5114083;28;20177;-89
2023/12/15 05:40:56;;;;;;;0.50;0.30;;;;;;;12.20;66.62;99105.53;5114160;28;20248;-91
2023/12/15 05:43:21;;;;;;;0.70;0.30;;;;;;;12.15;66.67;99104.09;5114107;28;20181;-90
2023/12/15 05:45:47;;;;;;;0.40;0.23;;;;;;;12.00;67.39;99108.47;5114041;28;20173;-90
2023/12/15 05:48:12;;;;;;;0.33;0.20;;;;;;;12.00;67.11;99102.38;5094304;28;20635;-90
2023/12/15 05:50:38;;;;;;;1.70;0.43;;;;;;;11.96;67.58;99103.50;5110705;27;20654;-88
2023/12/15 05:53:03;;;;;;;0.23;0.20;;;;;;;11.88;67.54;99103.94;5114066;28;20666;-89
2023/12/15 05:55:30;;;;;;;0.47;0.20;;;;;;;12.05;67.48;99126.59;5095970;28;20195;-90
2023/12/15 05:57:55;;;;;;;0.57;0.40;;;;;;;12.15;66.93;99130.38;5113661;28;20223;-88
2023/12/15 06:00:22;;;;;;;1.30;0.50;;;;;;;12.16;66.85;99132.06;5110502;28;20274;-89
2023/12/15 06:02:49;;;;;;;0.80;0.30;;;;;;;11.93;67.67;99140.44;5096113;28;20188;-89
2023/12/15 06:05:16;;;;;;;5.33;0.40;;;;;;;11.93;68.12;99143.06;5113474;28;20176;-89
2023/12/15 06:07:42;;;;;;;1.57;0.40;;;;;;;12.14;67.56;99157.56;5110993;28;20189;-89
2023/12/15 06:10:10;;;;;;;1.50;0.47;;;;;;;12.21;67.34;99156.31;5093715;28;20499;-90
2023/12/15 06:12:37;;;;;;;3.53;1.23;;;;;;;12.41;67.02;99158.59;5086406;28;20345;-91
2023/12/15 06:15:02;;;;;;;0.60;0.30;;;;;;;12.54;66.13;99162.19;5096183;28;20186;-89
2023/12/15 06:17:29;;;;;;;2.07;1.20;;;;;;;12.54;66.38;99159.56;5102246;28;20260;-91
2023/12/15 06:19:56;;;;;;;1.87;0.83;;;;;;;12.42;66.35;99155.00;5119523;28;20205;-90
2023/12/15 06:22:21;;;;;;;2.27;0.63;;;;;;;12.21;67.12;99164.19;5102224;28;20178;-90
2023/12/15 06:24:47;;;;;;;1.80;0.73;;;;;;;12.11;67.77;99165.63;5082706;28;20190;-90
2023/12/15 06:27:14;;;;;;;2.93;0.80;;;;;;;11.90;69.00;99183.47;5100035;28;20179;-90
2023/12/15 06:29:41;;;;;;;1.70;0.70;;;;;;;12.01;68.90;99181.09;5117367;28;20634;-90
2023/12/15 06:32:07;;;;;;;2.00;0.70;;;;;;;12.05;69.28;99187.03;5100063;28;20227;-90
2023/12/15 06:34:33;;;;;;;1.67;0.70;;;;;;;12.10;68.93;99188.47;5099968;28;20178;-91
2023/12/15 06:37:00;;;;;;;0.93;0.60;;;;;;;12.12;68.82;99194.47;5082184;28;20193;-90
2023/12/15 06:39:27;;;;;;;2.07;1.07;;;;;;;12.14;68.57;99202.25;5112499;28;20235;-90
2023/12/15 06:41:53;;;;;;;6.23;1.10;;;;;;;12.21;68.39;99203.59;5102638;28;20187;-90
2023/12/15 06:44:20;;;;;;;3.33;0.97;;;;;;;12.27;68.37;99208.47;5102353;28;20214;-90
2023/12/15 06:46:46;;;;;;;1.77;0.80;;;;;;;12.18;68.75;99209.03;5102159;28;20180;-89
2023/12/15 06:49:13;;;;;;;1.80;0.90;;;;;;;12.09;69.29;99212.19;5119223;28;20619;-89
2023/12/15 06:51:42;;;;;;;1.50;0.77;;;;;;;12.11;68.91;99205.03;5120181;28;20200;-91
2023/12/15 06:54:09;;;;;;;1.57;0.77;;;;;;;12.07;69.10;99219.31;5087283;28;20176;-90
2023/12/15 06:56:38;;;;;;;2.47;1.07;;;;;;;12.08;69.33;99234.16;5120274;28;20622;-90
2023/12/15 06:59:05;;;;;;;1.83;0.90;;;;;;;12.14;69.51;99244.28;5120487;28;20196;-90
2023/12/15 07:01:31;;;;;;;2.33;1.07;;;;;;;12.18;69.14;99244.06;5102043;28;20168;-89
2023/12/15 07:03:57;;;;;;;1.73;0.70;;;;;;;12.23;69.05;99241.16;5119643;28;20184;-90
2023/12/15 07:06:24;;;;;;;1.07;0.50;;;;;;;12.11;69.29;99239.19;5112888;27;20180;-90
2023/12/15 07:08:54;;;;;;;0.93;0.57;;;;;;;12.20;69.20;99228.19;5098519;28;20262;-89
2023/12/15 07:11:21;;;;;;;2.10;0.50;;;;;;;12.20;69.50;99223.78;5081947;28;20272;-91
2023/12/15 07:13:48;;;;;;;1.37;0.60;;;;;;;12.18;69.32;99230.06;5110104;28;20176;-90
2023/12/15 07:16:15;;;;;;;1.87;0.57;;;;;;;12.16;69.65;99252.91;5102132;28;20535;-91
2023/12/15 07:18:41;;;;;;;1.53;0.50;;;;;;;12.18;69.41;99249.31;5119868;28;20309;-91
2023/12/15 07:21:08;;;;;;;2.60;0.70;;;;;;;12.19;69.65;99256.22;5120134;28;20171;-91
2023/12/15 07:23:36;;;;;;;0.90;0.50;;;;;;;12.22;69.27;99252.59;5118972;28;20268;-90
2023/12/15 07:26:21;;;;;;;0.97;0.60;;;;;;;12.25;69.42;99255.03;5098612;28;20196;-90
2023/12/15 07:28:48;;;;;;;1.67;0.90;;;;;;;12.23;69.71;99275.31;5097847;28;20184;-90
2023/12/15 07:31:15;;;;;;;1.93;0.77;;;;;;;12.19;69.92;99293.03;5098575;28;20188;-90
2023/12/15 07:33:42;;;;;;;1.63;0.67;;;;;;;12.27;69.56;99289.97;5098497;28;20185;-92
2023/12/15 07:36:10;;;;;;;1.93;1.03;;;;;;;12.24;69.80;99284.88;5098668;28;20180;-90
2023/12/15 07:38:36;;;;;;;4.07;0.80;;;;;;;12.33;69.47;99287.00;5116174;28;20186;-91
2023/12/15 07:41:05;;;;;;;2.47;1.00;;;;;;;12.44;69.27;99284.59;5116461;28;20168;-91
2023/12/15 07:43:30;;;;;;;1.40;0.70;;;;;;;12.34;69.20;99286.06;5116271;28;20187;-91
2023/12/15 07:45:57;;;;;;;1.53;0.90;;;;;;;12.19;69.99;99286.91;5098176;28;20176;-89
2023/12/15 07:48:24;;;;;;;3.47;0.77;;;;;;;11.95;71.36;99280.44;5116536;28;20177;-90
2023/12/15 07:50:50;;;;;;;2.07;0.70;;;;;;;11.91;71.39;99294.66;5098178;28;20609;-91
2023/12/15 07:53:16;;;;;;;2.10;1.10;;;;;;;11.99;71.66;99292.44;5115822;28;20654;-91
2023/12/15 07:55:41;;;;;;;2.33;1.33;;;;;;;12.11;71.22;99297.88;5098115;28;20229;-91
2023/12/15 07:58:11;;;;;;;2.33;1.17;;;;;;;12.06;71.53;99307.78;5098362;28;20176;-91
2023/12/15 08:00:37;;;;;;;3.50;1.00;;;;;;;11.95;71.95;99323.28;5116087;28;20172;-90
2023/12/15 08:03:03;;;;;;;2.43;0.90;;;;;;;11.88;72.54;99331.59;5108909;28;20635;-90
2023/12/15 08:05:31;;;;;;;1.87;0.90;;;;;;;11.69;73.37;99331.75;5095791;28;20178;-91
2023/12/15 08:07:57;;;;;;;2.27;0.80;;;;;;;11.67;73.60;99328.31;5078315;28;20183;-91
2023/12/15 08:10:26;;;;;;;1.90;0.90;;;;;;;11.72;73.52;99321.06;5115915;28;20176;-90
2023/12/15 08:12:53;;;;;;;2.67;1.17;;;;;;;11.67;73.69;99331.81;5116121;28;20191;-90
2023/12/15 08:15:20;;;;;;;2.40;1.20;;;;;;;11.50;74.35;99337.09;5115580;28;20190;-90
2023/12/15 08:17:46;;;;;;;3.67;1.30;;;;;;;11.41;74.84;99328.88;5115623;28;20179;-90
2023/12/15 08:20:12;;;;;;;2.23;1.03;;;;;;;11.42;75.32;99343.69;5115539;28;20203;-89
2023/12/15 08:22:39;;;;;;;2.53;1.13;;;;;;;11.60;74.73;99354.06;5114828;28;20173;-90
2023/12/15 08:25:05;;;;;;;1.63;0.73;;;;;;;11.46;75.39;99358.34;5115508;28;20183;-89
2023/12/15 08:27:31;;;;;;;2.13;0.90;;;;;;;11.39;76.45;99368.31;5115871;28;20198;-90
2023/12/15 08:29:59;;;;;;;2.07;1.00;;;;;;;11.45;75.57;99365.34;5097579;28;20180;-91
2023/12/15 08:32:26;;;;;;;2.43;0.80;;;;;;;11.45;76.09;99370.59;5097486;28;20283;-90
2023/12/15 08:34:52;;;;;;;0.80;0.50;;;;;;;11.59;75.42;99367.25;5097226;28;20186;-91
2023/12/15 08:37:18;;;;;;;2.17;1.30;;;;;;;11.73;75.47;99370.06;5097587;28;20199;-90
2023/12/15 08:39:45;;;;;;;1.83;0.77;;;;;;;11.62;75.21;99361.84;5114916;28;20203;-90
2023/12/15 08:42:12;;;;;;;1.67;0.60;;;;;;;11.52;75.84;99381.66;5115447;28;20182;-89
2023/12/15 08:44:39;;;;;;;1.53;0.87;;;;;;;11.47;75.78;99384.53;5115112;28;20173;-90
2023/12/15 08:47:06;;;;;;;1.90;0.90;;;;;;;11.55;75.64;99379.72;5115226;28;20231;-90
2023/12/15 08:49:33;;;;;;;3.00;1.13;;;;;;;11.55;75.74;99371.84;5097209;28;20583;-90
2023/12/15 08:52:00;;;;;;;1.10;0.60;;;;;;;11.54;75.43;99383.25;5096999;28;20200;-91
2023/12/15 08:54:25;;;;;;;2.40;1.17;;;;;;;11.42;76.17;99380.44;5114907;28;20220;-90
2023/12/15 08:56:52;;;;;;;2.30;1.57;;;;;;;11.51;76.23;99370.28;5115503;28;20316;-90
2023/12/15 08:59:18;;;;;;;2.97;1.70;;;;;;;11.61;76.10;99363.63;5115256;28;20187;-90
2023/12/15 09:01:44;;;;;;;3.30;1.57;;;;;;;11.61;75.45;99358.38;5114829;28;20526;-89
2023/12/15 09:04:10;;;;;;;2.90;1.20;;;;;;;11.59;75.63;99352.38;5096299;28;20276;-90
2023/12/15 09:06:37;;;;;;;2.80;1.20;;;;;;;11.61;75.86;99376.75;5096905;28;20267;-89
2023/12/15 09:09:03;;;;;;;12.33;4.87;;;;;;;11.78;75.73;99377.66;5115071;28;20606;-89
2023/12/15 09:11:29;;;;;;;5.03;1.93;;;;;;;11.77;75.44;99389.09;5114379;28;20187;-90
2023/12/15 09:13:56;;;;;;;5.40;1.53;;;;;;;11.85;75.19;99398.28;5114761;28;20673;-90
2023/12/15 09:16:23;;;;;;;2.33;1.10;;;;;;;11.72;76.12;99399.84;5114543;28;20182;-90
2023/12/15 09:18:48;;;;;;;2.60;1.10;;;;;;;11.76;75.73;99401.41;5114236;28;20280;-90
2023/12/15 09:21:14;;;;;;;5.63;1.90;;;;;;;11.84;75.70;99409.72;5115267;28;20188;-89
2023/12/15 09:23:40;;;;;;;4.73;1.30;;;;;;;11.89;75.31;99398.97;5114449;28;20265;-90
2023/12/15 09:26:07;;;;;;;3.87;1.60;;;;;;;11.89;74.70;99405.06;5114086;28;20636;-89
2023/12/15 09:28:32;;;;;;;4.47;1.50;;;;;;;11.95;74.95;99404.72;5114958;28;20172;-90
2023/12/15 09:30:58;;;;;;;4.83;1.80;;;;;;;12.03;74.31;99401.69;5096392;28;20573;-90
2023/12/15 09:33:25;;;;;;;3.50;2.13;;;;;;;12.02;74.26;99400.00;5096394;28;20554;-91
2023/12/15 09:35:53;;;;;;;3.93;1.80;;;;;;;12.05;74.24;99389.31;5096140;28;20184;-90
2023/12/15 09:38:20;;;;;;;2.07;1.00;;;;;;;12.10;74.04;99379.41;5114281;28;20184;-90
2023/12/15 09:40:48;;;;;;;2.90;1.47;;;;;;;12.21;73.72;99385.75;5114074;28;20182;-90
2023/12/15 09:43:14;;;;;;;8.13;2.43;;;;;;;12.27;73.78;99387.19;5114236;28;20632;-90
2023/12/15 09:45:40;;;;;;;9.33;4.03;;;;;;;12.27;73.69;99397.72;5113881;28;20184;-90
2023/12/15 09:48:07;;;;;;;5.97;3.07;;;;;;;12.21;73.50;99413.84;5114091;28;20176;-89
2023/12/15 09:50:34;;;;;;;6.77;2.90;;;;;;;12.17;73.78;99413.16;5113806;28;20200;-89
2023/12/15 09:53:03;;;;;;;4.20;1.97;;;;;;;11.96;74.32;99414.31;5114139;28;20199;-90
2023/12/15 09:55:31;;;;;;;4.37;2.20;;;;;;;11.97;74.38;99410.75;5095945;28;20199;-90
2023/12/15 09:57:59;;;;;;;3.93;2.40;;;;;;;11.87;74.67;99421.84;5113915;28;20631;-90
2023/12/15 10:00:24;;;;;;;3.57;2.30;;;;;;;11.89;75.45;99412.09;5113742;28;20259;-91
2023/12/15 10:02:50;;;;;;;3.90;2.40;;;;;;;11.85;75.38;99405.28;5113377;28;20609;-90
2023/12/15 10:05:16;;;;;;;6.23;2.10;;;;;;;11.75;75.49;99394.44;5113301;28;20251;-90
2023/12/15 10:07:44;;;;;;;5.00;2.67;;;;;;;11.76;76.60;99400.53;5113815;28;20171;-89
2023/12/15 10:10:11;;;;;;;6.00;2.50;;;;;;;11.83;76.21;99417.66;5084465;28;20180;-90
2023/12/15 10:12:38;;;;;;;7.57;2.47;;;;;;;11.85;75.79;99421.06;5075731;28;20622;-89
2023/12/15 10:15:06;;;;;;;5.97;1.90;;;;;;;11.89;75.83;99412.94;5101526;28;20180;-90
2023/12/15 10:17:33;;;;;;;6.23;2.87;;;;;;;11.93;75.80;99403.09;5113742;28;20248;-90
2023/12/15 10:20:10;;;;;;;6.80;2.80;;;;;;;12.02;75.87;99400.00;5113380;28;20199;-90
2023/12/15 10:22:38;;;;;;;8.73;3.87;;;;;;;12.08;75.25;99410.19;5113504;28;20202;-89
2023/12/15 10:25:23;;;;;;;4.50;2.07;;;;;;;12.14;75.38;99423.81;5113735;28;20675;-90
2023/12/15 10:27:50;;;;;;;2.97;1.57;;;;;;;12.16;74.94;99421.09;5114169;28;20204;-90
2023/12/15 10:30:18;;;;;;;3.63;1.73;;;;;;;12.15;75.22;99416.78;5114052;28;20658;-90
2023/12/15 10:32:45;;;;;;;3.43;1.60;;;;;;;12.06;75.19;99426.00;5113276;28;20567;-89
2023/12/15 10:35:12;;;;;;;5.93;2.77;;;;;;;12.17;75.01;99439.44;5095633;28;20188;-91
2023/12/15 10:37:41;;;;;;;3.80;2.33;;;;;;;12.24;74.99;99439.94;5095556;28;20185;-89
2023/12/15 10:40:08;;;;;;;4.97;2.03;;;;;;;12.29;74.89;99449.25;5113817;28;20652;-90
2023/12/15 10:42:35;;;;;;;5.73;2.60;;;;;;;12.16;74.35;99442.13;5114019;28;20160;-90
2023/12/15 10:45:07;;;;;;;7.33;2.83;;;;;;;12.07;74.70;99434.75;5113189;28;20183;-89
2023/12/15 10:47:33;;;;;;;5.33;2.67;;;;;;;12.10;75.13;99437.22;5096326;28;20594;-90
2023/12/15 10:50:01;;;;;;;4.83;2.40;;;;;;;12.20;75.08;99443.66;5113773;28;20256;-89
2023/12/15 10:52:27;;;;;;;5.67;2.33;;;;;;;12.22;74.89;99450.53;5113374;28;20220;-90
2023/12/15 10:54:55;;;;;;;6.47;2.17;;;;;;;12.17;75.06;99463.06;5095469;28;20539;-90
2023/12/15 10:57:21;;;;;;;4.27;2.30;;;;;;;12.21;75.01;99461.97;5113565;28;20626;-89
2023/12/15 10:59:48;;;;;;;3.33;1.87;;;;;;;12.09;74.91;99459.16;5113300;28;20187;-90
2023/12/15 11:02:20;;;;;;;3.57;2.17;;;;;;;12.17;74.61;99460.44;5113301;28;20168;-90
2023/12/15 11:04:51;;;;;;;6.83;2.13;;;;;;;12.13;74.62;99458.09;5098722;28;20183;-89
2023/12/15 11:07:21;;;;;;;3.10;1.70;;;;;;;12.09;74.39;99461.78;5117379;28;20168;-90
2023/12/15 11:09:47;;;;;;;3.50;1.87;;;;;;;12.12;74.67;99482.66;5117503;28;20177;-89
2023/12/15 11:12:22;;;;;;;5.17;2.67;;;;;;;12.18;74.68;99482.31;5098999;28;20202;-90
2023/12/15 11:14:53;;;;;;;3.77;2.10;;;;;;;12.23;74.43;99491.66;5117016;28;20180;-90
2023/12/15 11:17:19;;;;;;;6.30;2.23;;;;;;;12.27;74.70;99482.66;5116968;28;20263;-90
2023/12/15 11:19:50;;;;;;;3.50;1.90;;;;;;;12.31;74.72;99483.38;5098665;28;20271;-89
2023/12/15 11:22:17;;;;;;;5.63;2.00;;;;;;;12.24;74.21;99476.72;5098726;28;20217;-89
2023/12/15 11:24:44;;;;;;;6.70;2.80;;;;;;;11.86;75.55;99467.41;5098776;28;20183;-89
2023/12/15 11:27:13;;;;;;;4.33;2.33;;;;;;;11.91;75.87;99468.03;5098614;28;20381;-90
2023/12/15 11:29:40;;;;;;;4.07;2.17;;;;;;;11.89;75.10;99475.13;5117076;28;20180;-90
2023/12/15 11:32:30;;;;;;;4.43;2.07;;;;;;;11.70;75.60;99483.13;5116580;28;20253;-90